TimePDT,TemperatureF,Dew PointF,Humidity,Sea Level PressureIn,VisibilityMPH,Wind Direction,Wind SpeedMPH,Gust SpeedMPH,PrecipitationIn,Events,Conditions,WindDirDegrees,DateUTC
12:52 AM,63.0,50.0,63,29.92,10.0,WSW,8.1,-,N/A,,Clear,240,2012-10-02 07:52:00
1:52 AM,62.1,48.9,62,29.92,10.0,WSW,6.9,-,N/A,,Clear,240,2012-10-02 08:52:00
2:52 AM,64.9,45.0,48,29.92,10.0,Variable,5.8,-,N/A,,Clear,0,2012-10-02 09:52:00
3:52 AM,64.9,37.0,36,29.92,10.0,WNW,12.7,21.9,N/A,,Clear,290,2012-10-02 10:52:00
4:52 AM,59.0,36.0,42,29.95,10.0,Calm,Calm,-,N/A,,Clear,0,2012-10-02 11:52:00
5:52 AM,55.4,33.8,44,29.97,10.0,ESE,4.6,-,N/A,,Clear,110,2012-10-02 12:52:00
6:52 AM,54.0,30.0,40,29.97,10.0,West,6.9,-,N/A,,Clear,270,2012-10-02 13:52:00
7:52 AM,55.0,33.1,43,29.99,10.0,South,3.5,-,N/A,,Clear,180,2012-10-02 14:52:00
8:52 AM,63.0,30.9,30,29.99,10.0,West,12.7,-,N/A,,Clear,260,2012-10-02 15:52:00
9:52 AM,66.0,32.0,28,29.99,10.0,West,8.1,-,N/A,,Clear,260,2012-10-02 16:52:00
10:52 AM,69.1,30.9,24,29.97,10.0,SW,9.2,-,N/A,,Clear,230,2012-10-02 17:52:00
11:52 AM,72.0,30.0,21,29.96,10.0,WSW,13.8,-,N/A,,Clear,250,2012-10-02 18:52:00
12:52 PM,73.0,30.0,20,29.93,10.0,WSW,8.1,18.4,N/A,,Clear,250,2012-10-02 19:52:00
1:20 PM,75.2,23.0,14,29.93,10.0,West,11.5,21.9,N/A,,Clear,260,2012-10-02 20:20:00
1:52 PM,75.9,23.0,14,29.92,9.0,West,16.1,20.7,N/A,,Clear,260,2012-10-02 20:52:00
2:52 PM,75.9,10.9,8,29.91,9.0,NNW,17.3,28.8,N/A,,Clear,330,2012-10-02 21:52:00
3:47 PM,71.6,26.6,19,29.93,4.0,North,26.5,33.4,N/A,,Haze,350,2012-10-02 22:47:00
3:52 PM,72.0,25.0,17,29.92,3.0,North,20.7,33.4,N/A,,Haze,360,2012-10-02 22:52:00
4:52 PM,66.0,23.0,20,29.98,2.5,North,24.2,36.8,N/A,,Haze,360,2012-10-02 23:52:00
5:04 PM,64.4,21.2,19,29.99,2.5,North,33.4,40.3,N/A,,Haze,360,2012-10-03 00:04:00
5:52 PM,60.1,14.0,16,30.04,2.5,North,27.6,44.9,N/A,,Widespread Dust,10,2012-10-03 00:52:00
6:48 PM,57.2,14.0,18,30.08,7.0,North,23.0,31.1,N/A,,Widespread Dust,10,2012-10-03 01:48:00
6:52 PM,57.2,14.0,18,30.08,5.0,North,21.9,32.2,N/A,,Widespread Dust,10,2012-10-03 01:52:00
7:52 PM,55.0,15.1,21,30.10,8.0,North,31.1,38.0,N/A,,Widespread Dust,10,2012-10-03 02:52:00
8:52 PM,53.1,16.0,23,30.16,10.0,North,18.4,25.3,N/A,,Widespread Dust,360,2012-10-03 03:52:00
9:52 PM,51.1,16.0,25,30.19,10.0,NNE,23.0,34.5,N/A,,Clear,20,2012-10-03 04:52:00
10:52 PM,50.0,19.0,29,30.23,8.0,North,18.4,25.3,N/A,,Clear,10,2012-10-03 05:52:00
11:24 PM,50.0,19.4,30,30.25,5.0,North,13.8,21.9,N/A,,Haze,360,2012-10-03 06:24:00
11:52 PM,50.0,19.9,31,30.25,4.0,North,17.3,25.3,N/A,,Haze,360,2012-10-03 06:52:00